createdAt,value
2023-08-15T00:00:54.167Z,101226.48
2023-08-15T00:03:21.875Z,101225.59
2023-08-15T00:05:49.884Z,101224.08
2023-08-15T00:08:17.343Z,101232.05
2023-08-15T00:10:45.001Z,101232.75
2023-08-15T00:13:12.458Z,101234.43
2023-08-15T00:15:40.224Z,101235.27
2023-08-15T00:18:08.138Z,101235.08
2023-08-15T00:20:35.572Z,101238.20
2023-08-15T00:23:03.109Z,101240.92
2023-08-15T00:25:30.680Z,101244.71
2023-08-15T00:27:58.335Z,101240.96
2023-08-15T00:30:25.997Z,101240.45
2023-08-15T00:32:53.481Z,101239.77
2023-08-15T00:35:21.118Z,101245.20
2023-08-15T00:37:48.687Z,101246.30
2023-08-15T00:40:16.235Z,101246.63
2023-08-15T00:42:43.799Z,101248.16
2023-08-15T00:45:11.567Z,101248.98
2023-08-15T00:47:39.724Z,101249.86
2023-08-15T00:50:08.194Z,101249.41
2023-08-15T00:52:37.065Z,101248.84
2023-08-15T00:55:05.484Z,101249.27
2023-08-15T00:57:32.887Z,101249.58
2023-08-15T01:00:00.692Z,101251.27
2023-08-15T01:02:28.342Z,101251.09
2023-08-15T01:04:55.935Z,101248.98
2023-08-15T01:07:23.553Z,101244.63
2023-08-15T01:09:51.163Z,101245.36
2023-08-15T01:12:45.596Z,101242.72
2023-08-15T01:15:17.198Z,101244.60
2023-08-15T01:17:49.907Z,101245.45
2023-08-15T01:20:21.227Z,101241.09
2023-08-15T01:22:49.002Z,101240.05
2023-08-15T01:25:16.463Z,101238.92
2023-08-15T01:27:45.447Z,101239.33
2023-08-15T01:30:13.646Z,101237.45
2023-08-15T01:32:50.061Z,101241.80
2023-08-15T01:35:24.113Z,101240.84
2023-08-15T01:38:02.487Z,101241.89
2023-08-15T01:40:30.772Z,101241.25
2023-08-15T01:42:59.856Z,101242.43
2023-08-15T01:45:27.558Z,101242.64
2023-08-15T01:47:56.185Z,101245.36
2023-08-15T01:50:23.805Z,101241.27
2023-08-15T01:52:51.361Z,101239.33
2023-08-15T01:55:19.022Z,101237.83
2023-08-15T01:57:46.482Z,101237.59
2023-08-15T02:00:14.387Z,101240.11
2023-08-15T02:02:44.910Z,101238.40
2023-08-15T02:05:14.676Z,101235.98
2023-08-15T02:07:42.356Z,101235.41
2023-08-15T02:10:10.287Z,101232.48
2023-08-15T02:12:38.088Z,101233.34
2023-08-15T02:15:06.471Z,101230.15
2023-08-15T02:17:34.101Z,101228.11
2023-08-15T02:20:02.376Z,101229.79
2023-08-15T02:22:31.194Z,101230.57
2023-08-15T02:24:58.759Z,101233.80
2023-08-15T02:27:27.748Z,101232.77
2023-08-15T02:29:55.305Z,101233.58
2023-08-15T02:32:23.090Z,101231.70
2023-08-15T02:34:50.484Z,101230.63
2023-08-15T02:37:18.032Z,101229.85
2023-08-15T02:39:45.548Z,101230.47
2023-08-15T02:42:13.210Z,101233.88
2023-08-15T02:44:40.694Z,101235.88
2023-08-15T02:47:08.239Z,101236.80
2023-08-15T02:49:35.787Z,101238.65
2023-08-15T02:52:03.172Z,101239.87
2023-08-15T02:54:30.601Z,101242.73
2023-08-15T02:56:58.179Z,101242.88
2023-08-15T03:19:51.385Z,101252.02
2023-08-15T03:22:18.476Z,101254.81
2023-08-15T03:26:11.665Z,101258.78
2023-08-15T03:28:49.087Z,101269.21
2023-08-15T03:31:24.875Z,101271.39
2023-08-15T03:33:55.035Z,101274.88
2023-08-15T03:36:21.828Z,101275.06
2023-08-15T03:38:48.881Z,101274.11
2023-08-15T03:41:15.515Z,101273.73
2023-08-15T03:43:42.803Z,101275.63
2023-08-15T03:46:09.542Z,101277.38
2023-08-15T03:48:36.662Z,101279.64
2023-08-15T03:51:03.382Z,101276.96
2023-08-15T03:53:34.601Z,101282.52
2023-08-15T03:56:03.113Z,101276.73
2023-08-15T03:58:30.938Z,101280.11
2023-08-15T04:00:57.558Z,101284.31
2023-08-15T04:03:24.318Z,101284.86
2023-08-15T04:05:52.498Z,101284.40
2023-08-15T04:08:19.204Z,101282.33
2023-08-15T04:10:46.458Z,101285.77
2023-08-15T04:13:13.229Z,101289.73
2023-08-15T04:15:40.093Z,101291.41
2023-08-15T04:18:11.296Z,101291.48
2023-08-15T04:20:41.749Z,101288.40
2023-08-15T04:23:11.370Z,101287.27
2023-08-15T04:25:38.685Z,101285.70
2023-08-15T04:28:06.249Z,101287.20
2023-08-15T04:30:33.964Z,101288.44
2023-08-15T04:33:00.669Z,101287.99
2023-08-15T04:35:27.787Z,101287.45
2023-08-15T04:37:54.702Z,101284.52
2023-08-15T04:40:35.223Z,101278.15
2023-08-15T04:43:03.048Z,101281.23
2023-08-15T04:45:31.531Z,101279.63
2023-08-15T04:47:58.679Z,101282.86
2023-08-15T04:50:25.878Z,101287.92
2023-08-15T04:52:52.648Z,101285.56
2023-08-15T04:55:22.952Z,101285.60
2023-08-15T05:03:48.811Z,101296.02
2023-08-15T05:06:46.975Z,101297.36
2023-08-15T05:09:27.867Z,101299.27
2023-08-15T05:12:44.608Z,101296.61
2023-08-15T05:15:39.027Z,101294.77
2023-08-15T05:18:12.035Z,101293.81
2023-08-15T05:20:58.453Z,101295.77
2023-08-15T05:24:03.473Z,101293.22
2023-08-15T05:35:21.822Z,101294.56
2023-08-15T05:41:17.716Z,101292.20
2023-08-15T05:44:01.335Z,101291.69
2023-08-15T05:46:28.135Z,101291.35
2023-08-15T05:48:54.925Z,101291.08
2023-08-15T05:51:21.588Z,101288.88
2023-08-15T05:53:48.508Z,101284.86
2023-08-15T05:56:15.261Z,101285.16
2023-08-15T05:58:42.025Z,101283.70
2023-08-15T06:01:09.079Z,101284.30
2023-08-15T06:03:51.302Z,101288.13
2023-08-15T06:06:19.553Z,101292.60
2023-08-15T06:08:49.260Z,101292.36
2023-08-15T06:11:16.060Z,101294.65
2023-08-15T06:13:49.239Z,101293.75
2023-08-15T06:16:18.765Z,101295.89
2023-08-15T06:18:45.818Z,101293.63
2023-08-15T06:21:12.565Z,101298.44
2023-08-15T06:23:39.456Z,101300.77
2023-08-15T06:26:06.245Z,101300.98
2023-08-15T06:28:33.195Z,101297.30
2023-08-15T06:30:59.952Z,101294.40
2023-08-15T06:33:26.678Z,101293.66
2023-08-15T06:35:53.635Z,101292.10
2023-08-15T06:38:20.255Z,101293.31
2023-08-15T06:40:47.288Z,101293.69
2023-08-15T06:43:14.067Z,101293.55
2023-08-15T06:45:40.782Z,101290.61
2023-08-15T06:48:07.591Z,101293.91
2023-08-15T06:50:34.445Z,101292.20
2023-08-15T06:53:01.314Z,101293.33
2023-08-15T06:55:28.198Z,101292.08
2023-08-15T06:57:55.001Z,101294.38
2023-08-15T07:00:21.963Z,101291.80
2023-08-15T07:02:49.626Z,101289.48
2023-08-15T07:05:16.555Z,101288.54
2023-08-15T07:07:43.197Z,101289.59
2023-08-15T07:10:10.982Z,101288.52
2023-08-15T07:13:12.720Z,101289.27
2023-08-15T07:15:39.424Z,101293.40
2023-08-15T07:18:06.354Z,101289.97
2023-08-15T07:20:34.410Z,101292.48
2023-08-15T07:23:01.416Z,101296.52
2023-08-15T07:25:28.065Z,101298.38
2023-08-15T07:27:54.866Z,101299.77
2023-08-15T07:30:21.646Z,101300.70
2023-08-15T07:32:48.252Z,101302.20
2023-08-15T07:35:16.158Z,101300.34
2023-08-15T07:37:42.995Z,101298.74
2023-08-15T07:40:51.238Z,101299.41
2023-08-15T07:43:57.195Z,101300.27
2023-08-15T07:46:24.723Z,101301.37
2023-08-15T07:48:51.504Z,101300.42
2023-08-15T07:51:20.099Z,101300.98
2023-08-15T07:53:53.043Z,101300.46
2023-08-15T07:56:30.648Z,101302.55
2023-08-15T07:59:04.625Z,101300.10
2023-08-15T08:01:43.335Z,101301.91
2023-08-15T08:05:17.664Z,101298.68
2023-08-15T08:08:10.232Z,101294.30
2023-08-15T08:10:44.174Z,101292.70
2023-08-15T08:13:20.655Z,101293.63
2023-08-15T08:15:47.890Z,101295.55
2023-08-15T08:18:15.102Z,101294.12
2023-08-15T08:20:42.241Z,101294.14
2023-08-15T08:23:09.385Z,101295.77
2023-08-15T08:25:36.740Z,101298.52
2023-08-15T08:28:05.273Z,101297.69
2023-08-15T08:30:34.857Z,101294.36
2023-08-15T08:33:07.374Z,101293.38
2023-08-15T08:35:36.638Z,101296.07
2023-08-15T08:38:04.198Z,101298.13
2023-08-15T08:40:32.248Z,101293.89
2023-08-15T08:42:59.072Z,101290.33
2023-08-15T08:45:35.181Z,101289.19
2023-08-15T08:48:14.383Z,101285.35
2023-08-15T08:50:41.878Z,101283.56
2023-08-15T08:53:08.528Z,101281.71
2023-08-15T08:56:09.428Z,101282.20
2023-08-15T08:58:36.892Z,101279.77
2023-08-15T09:01:12.346Z,101275.89
2023-08-15T09:03:41.722Z,101279.21
2023-08-15T09:06:51.688Z,101276.41
2023-08-15T09:09:18.633Z,101271.60
2023-08-15T09:11:48.118Z,101270.00
2023-08-15T09:14:15.624Z,101271.65
2023-08-15T09:19:41.396Z,101269.40
2023-08-15T09:22:15.534Z,101268.02
2023-08-15T09:24:47.914Z,101267.00
2023-08-15T09:27:14.686Z,101267.28
2023-08-15T09:29:45.627Z,101262.16
2023-08-15T09:32:22.735Z,101264.17
2023-08-15T09:34:52.714Z,101263.88
2023-08-15T09:37:27.373Z,101262.70
2023-08-15T09:40:01.752Z,101260.83
2023-08-15T09:42:45.294Z,101257.17
2023-08-15T09:45:17.390Z,101252.46
2023-08-15T09:47:47.429Z,101251.23
2023-08-15T09:50:14.819Z,101254.89
2023-08-15T09:52:42.547Z,101252.17
2023-08-15T09:55:35.159Z,101253.35
2023-08-15T09:58:11.053Z,101252.41
2023-08-15T10:00:51.898Z,101254.77
2023-08-15T10:03:40.250Z,101248.41
2023-08-15T10:07:03.849Z,101244.86
2023-08-15T10:09:30.999Z,101245.38
2023-08-15T10:12:02.392Z,101240.55
2023-08-15T10:14:32.871Z,101240.73
2023-08-15T10:17:21.575Z,101242.77
2023-08-15T10:19:51.390Z,101239.02
2023-08-15T10:22:24.498Z,101240.61
2023-08-15T10:24:51.723Z,101236.95
2023-08-15T10:27:20.258Z,101234.67
2023-08-15T10:30:59.476Z,101235.08
2023-08-15T10:34:01.705Z,101238.19
2023-08-15T10:36:29.129Z,101235.01
2023-08-15T10:38:56.290Z,101226.39
2023-08-15T10:41:26.151Z,101220.99
2023-08-15T10:43:56.618Z,101219.44
2023-08-15T10:49:55.512Z,101215.98
2023-08-15T10:52:22.697Z,101215.20
2023-08-15T10:54:50.163Z,101216.08
2023-08-15T10:57:17.609Z,101214.05
2023-08-15T10:59:44.952Z,101212.48
2023-08-15T11:02:12.449Z,101212.39
2023-08-15T11:04:40.816Z,101213.31
2023-08-15T11:07:09.781Z,101209.94
2023-08-15T11:09:41.453Z,101207.66
2023-08-15T11:12:10.093Z,101199.29
2023-08-15T11:14:38.020Z,101197.38
2023-08-15T11:17:09.827Z,101194.41
2023-08-15T11:19:36.894Z,101191.52
2023-08-15T11:22:05.824Z,101190.59
2023-08-15T11:24:33.293Z,101187.25
2023-08-15T11:27:02.004Z,101187.13
2023-08-15T11:29:34.442Z,101189.13
2023-08-15T11:32:01.892Z,101184.64
2023-08-15T11:34:34.358Z,101182.89
2023-08-15T11:37:01.366Z,101184.98
2023-08-15T11:39:33.587Z,101184.27
2023-08-15T11:42:01.831Z,101182.55
2023-08-15T11:44:31.234Z,101180.21
2023-08-15T11:47:02.003Z,101179.48
2023-08-15T11:49:45.965Z,101184.85
2023-08-15T11:52:23.152Z,101182.55
2023-08-15T11:54:53.358Z,101180.05
2023-08-15T11:57:36.302Z,101180.45
2023-08-15T12:00:04.637Z,101178.62
2023-08-15T12:02:35.489Z,101174.77
2023-08-15T12:05:31.077Z,101175.73
2023-08-15T12:07:58.246Z,101172.54
2023-08-15T12:10:25.783Z,101171.86
2023-08-15T12:12:53.241Z,101174.67
2023-08-15T12:15:24.736Z,101172.40
2023-08-15T12:17:51.812Z,101169.20
2023-08-15T12:20:20.519Z,101165.45
2023-08-15T12:22:50.486Z,101163.26
2023-08-15T12:25:19.330Z,101161.80
2023-08-15T12:27:48.473Z,101159.66
2023-08-15T12:30:18.020Z,101155.15
2023-08-15T12:32:54.176Z,101157.16
2023-08-15T12:37:58.153Z,101151.38
2023-08-15T12:40:30.912Z,101149.38
2023-08-15T12:43:02.379Z,101148.68
2023-08-15T12:45:30.234Z,101147.20
2023-08-15T12:47:57.848Z,101144.58
2023-08-15T12:50:25.881Z,101141.55
2023-08-15T12:52:56.335Z,101140.17
2023-08-15T12:55:23.997Z,101139.19
2023-08-15T12:57:51.387Z,101137.04
2023-08-15T13:00:18.988Z,101138.80
2023-08-15T13:02:46.706Z,101143.84
2023-08-15T13:05:14.174Z,101139.59
2023-08-15T13:07:41.654Z,101139.86
2023-08-15T13:10:09.177Z,101136.19
2023-08-15T13:12:36.697Z,101130.86
2023-08-15T13:15:06.600Z,101127.68
2023-08-15T13:17:34.466Z,101129.39
2023-08-15T13:20:02.134Z,101128.07
2023-08-15T13:22:29.690Z,101125.42
2023-08-15T13:24:57.296Z,101128.41
2023-08-15T13:27:24.849Z,101124.87
2023-08-15T13:29:52.405Z,101125.64
2023-08-15T13:32:20.127Z,101125.52
2023-08-15T13:34:48.032Z,101123.47
2023-08-15T13:37:15.390Z,101123.48
2023-08-15T13:39:42.918Z,101119.73
2023-08-15T13:42:14.828Z,101123.11
2023-08-15T13:44:51.043Z,101120.33
2023-08-15T13:47:18.605Z,101119.31
2023-08-15T13:49:46.060Z,101120.43
2023-08-15T13:52:13.519Z,101116.88
2023-08-15T13:54:41.079Z,101115.63
2023-08-15T13:57:08.727Z,101113.12
2023-08-15T13:59:36.715Z,101111.88
2023-08-15T14:02:04.626Z,101104.56
2023-08-15T14:04:32.968Z,101105.58
2023-08-15T14:07:00.837Z,101100.92
2023-08-15T14:09:29.029Z,101098.04
2023-08-15T14:11:56.458Z,101097.73
2023-08-15T14:14:24.021Z,101098.54
2023-08-15T14:16:52.120Z,101099.39
2023-08-15T14:19:19.494Z,101094.94
2023-08-15T14:21:47.418Z,101090.14
2023-08-15T14:24:14.924Z,101090.74
2023-08-15T14:26:42.663Z,101084.55
2023-08-15T14:29:10.007Z,101084.39
2023-08-15T14:31:37.433Z,101084.98
2023-08-15T14:34:05.160Z,101085.29
2023-08-15T14:36:32.884Z,101080.56
2023-08-15T14:39:00.439Z,101081.55
2023-08-15T14:41:27.939Z,101083.82
2023-08-15T14:43:55.459Z,101081.23
2023-08-15T14:46:22.984Z,101081.95
2023-08-15T14:48:50.576Z,101079.00
2023-08-15T14:51:18.181Z,101078.04
2023-08-15T14:53:45.641Z,101076.66
2023-08-15T14:56:13.784Z,101076.00
2023-08-15T14:58:42.693Z,101079.90
2023-08-15T15:01:10.327Z,101083.30
2023-08-15T15:03:37.850Z,101078.73
2023-08-15T15:06:05.394Z,101076.30
2023-08-15T15:08:32.931Z,101073.80
2023-08-15T15:11:02.717Z,101068.74
2023-08-15T15:13:30.390Z,101070.15
2023-08-15T15:15:57.949Z,101070.09
2023-08-15T15:18:25.527Z,101067.54
2023-08-15T15:34:19.473Z,101062.36
2023-08-15T15:36:48.084Z,101058.16
2023-08-15T15:39:14.916Z,101057.83
2023-08-15T15:41:41.646Z,101054.91
2023-08-15T15:44:08.425Z,101057.09
2023-08-15T15:46:48.856Z,101054.98
2023-08-15T15:49:19.861Z,101050.97
2023-08-15T15:51:46.342Z,101052.74
2023-08-15T15:54:13.367Z,101053.83
2023-08-15T15:56:40.215Z,101057.01
2023-08-15T15:59:06.950Z,101057.91
2023-08-15T16:01:33.917Z,101057.33
2023-08-15T16:04:00.613Z,101059.20
2023-08-15T16:06:27.583Z,101057.83
2023-08-15T16:08:57.194Z,101054.96
2023-08-15T16:11:24.146Z,101056.05
2023-08-15T16:13:51.709Z,101059.08
2023-08-15T16:16:18.445Z,101057.04
2023-08-15T16:18:45.073Z,101058.70
2023-08-15T16:21:12.004Z,101053.67
2023-08-15T16:23:38.574Z,101056.52
2023-08-15T16:26:05.235Z,101058.50
2023-08-15T16:28:32.038Z,101062.36
2023-08-15T16:30:58.676Z,101063.84
2023-08-15T16:33:25.155Z,101066.51
2023-08-15T16:35:52.567Z,101066.81
2023-08-15T16:38:19.408Z,101069.14
2023-08-15T16:40:46.050Z,101072.66
2023-08-15T16:43:15.276Z,101071.42
2023-08-15T16:45:42.516Z,101076.67
2023-08-15T16:48:09.405Z,101079.16
2023-08-15T16:50:37.212Z,101081.45
2023-08-15T16:53:04.101Z,101079.02
2023-08-15T16:55:31.105Z,101083.27
2023-08-15T16:57:58.094Z,101082.66
2023-08-15T17:00:25.814Z,101081.07
2023-08-15T17:02:53.500Z,101085.83
2023-08-15T17:05:20.526Z,101082.02
2023-08-15T17:07:47.364Z,101087.64
2023-08-15T17:10:14.422Z,101092.02
2023-08-15T17:12:41.348Z,101091.11
2023-08-15T17:15:08.715Z,101089.94
2023-08-15T17:17:35.343Z,101096.30
2023-08-15T17:20:02.072Z,101102.33
2023-08-15T17:22:30.798Z,101103.63
2023-08-15T17:24:57.352Z,101110.84
2023-08-15T17:27:24.087Z,101115.34
2023-08-15T17:29:51.615Z,101118.09
2023-08-15T17:32:18.457Z,101123.92
2023-08-15T17:34:45.200Z,101127.02
2023-08-15T17:37:11.940Z,101129.97
2023-08-15T17:39:38.579Z,101131.98
2023-08-15T17:42:05.732Z,101132.12
2023-08-15T17:44:32.573Z,101132.36
2023-08-15T17:46:59.238Z,101133.77
2023-08-15T17:49:25.952Z,101135.80
2023-08-15T17:51:52.669Z,101138.87
2023-08-15T17:54:19.436Z,101144.29
2023-08-15T17:56:46.029Z,101146.05
2023-08-15T17:59:12.583Z,101144.14
2023-08-15T18:01:39.520Z,101148.21
2023-08-15T18:04:06.358Z,101149.44
2023-08-15T18:06:34.239Z,101147.98
2023-08-15T18:09:01.626Z,101149.97
2023-08-15T18:11:28.224Z,101146.79
2023-08-15T18:13:54.943Z,101146.77
2023-08-15T18:16:21.619Z,101149.35
2023-08-15T18:18:48.434Z,101156.24
2023-08-15T18:21:15.129Z,101155.17
2023-08-15T18:23:41.867Z,101156.35
2023-08-15T18:26:08.504Z,101153.23
2023-08-15T18:28:35.559Z,101152.18
2023-08-15T18:31:02.190Z,101153.48
2023-08-15T18:33:29.111Z,101156.83
2023-08-15T18:35:56.593Z,101153.27
2023-08-15T18:38:23.441Z,101152.35
2023-08-15T18:40:50.138Z,101153.21
2023-08-15T18:43:16.836Z,101150.30
2023-08-15T18:45:47.066Z,101157.77
2023-08-15T18:48:15.154Z,101162.70
2023-08-15T18:50:42.610Z,101166.02
2023-08-15T18:53:09.314Z,101164.94
2023-08-15T18:55:36.097Z,101165.00
2023-08-15T18:58:03.125Z,101162.55
2023-08-15T19:00:29.687Z,101167.44
2023-08-15T19:02:56.343Z,101164.83
2023-08-15T19:05:23.052Z,101165.39
2023-08-15T19:07:49.792Z,101169.16
2023-08-15T19:10:16.494Z,101171.96
2023-08-15T19:12:43.261Z,101177.55
2023-08-15T19:15:16.753Z,101177.39
2023-08-15T19:17:43.810Z,101182.44
2023-08-15T19:20:11.448Z,101181.11
2023-08-15T19:22:38.425Z,101181.46
2023-08-15T19:25:05.863Z,101178.01
2023-08-15T19:27:32.516Z,101180.20
2023-08-15T19:29:59.328Z,101180.39
2023-08-15T19:32:26.419Z,101178.88
2023-08-15T19:34:53.015Z,101180.05
2023-08-15T19:37:31.057Z,101178.86
2023-08-15T19:40:04.052Z,101179.76
2023-08-15T19:42:31.023Z,101182.73
2023-08-15T19:44:57.463Z,101183.66
2023-08-15T19:47:24.303Z,101184.60
2023-08-15T19:49:50.896Z,101186.05
2023-08-15T19:52:17.784Z,101186.75
2023-08-15T19:54:44.420Z,101182.11
2023-08-15T19:57:11.035Z,101182.77
2023-08-15T19:59:37.850Z,101184.77
2023-08-15T20:02:04.783Z,101183.56
2023-08-15T20:04:31.557Z,101187.99
2023-08-15T20:06:58.267Z,101192.11
2023-08-15T20:09:24.780Z,101194.32
2023-08-15T20:11:52.529Z,101193.15
2023-08-15T20:14:19.070Z,101193.00
2023-08-15T20:16:45.737Z,101195.45
2023-08-15T20:19:12.410Z,101191.73
2023-08-15T20:21:39.940Z,101192.98
2023-08-15T20:24:07.397Z,101191.13
2023-08-15T20:26:34.285Z,101189.20
2023-08-15T20:29:00.892Z,101189.33
2023-08-15T20:31:27.600Z,101188.10
2023-08-15T20:33:54.328Z,101189.69
2023-08-15T20:36:21.204Z,101193.27
2023-08-15T20:38:47.946Z,101198.02
2023-08-15T20:41:14.582Z,101201.67
2023-08-15T20:43:41.234Z,101204.06
2023-08-15T20:46:07.910Z,101200.70
2023-08-15T20:48:34.598Z,101204.06
2023-08-15T20:51:01.340Z,101203.08
2023-08-15T20:53:27.878Z,101206.08
2023-08-15T20:55:54.825Z,101203.28
2023-08-15T20:58:21.460Z,101204.00
2023-08-15T21:00:48.436Z,101201.81
2023-08-15T21:03:15.198Z,101198.52
2023-08-15T21:05:42.810Z,101199.08
2023-08-15T21:08:09.430Z,101200.04
2023-08-15T21:10:36.207Z,101201.90
2023-08-15T21:13:03.039Z,101206.33
2023-08-15T21:15:29.613Z,101205.51
2023-08-15T21:17:56.235Z,101209.20
2023-08-15T21:20:23.775Z,101209.11
2023-08-15T21:22:50.901Z,101207.12
2023-08-15T21:25:17.792Z,101208.84
2023-08-15T21:27:44.601Z,101203.83
2023-08-15T21:30:11.445Z,101207.13
2023-08-15T21:32:38.147Z,101208.92
2023-08-15T21:35:05.462Z,101209.71
2023-08-15T21:37:32.302Z,101213.38
2023-08-15T21:39:58.920Z,101214.29
2023-08-15T21:42:25.770Z,101213.83
2023-08-15T21:44:52.331Z,101215.52
2023-08-15T21:47:19.196Z,101214.66
2023-08-15T21:49:46.196Z,101212.89
2023-08-15T21:52:12.831Z,101215.11
2023-08-15T21:54:39.408Z,101212.07
2023-08-15T21:57:06.191Z,101211.73
2023-08-15T21:59:33.366Z,101213.91
2023-08-15T22:02:00.582Z,101214.45
2023-08-15T22:04:27.573Z,101215.49
2023-08-15T22:06:54.220Z,101216.49
2023-08-15T22:09:21.661Z,101214.98
2023-08-15T22:11:48.400Z,101222.91
2023-08-15T22:14:17.420Z,101219.41
2023-08-15T22:16:44.510Z,101216.05
2023-08-15T22:19:11.042Z,101215.13
2023-08-15T22:21:37.819Z,101211.77
2023-08-15T22:24:04.990Z,101216.63
2023-08-15T22:26:32.236Z,101217.30
2023-08-15T22:28:59.070Z,101215.59
2023-08-15T22:31:25.849Z,101214.55
2023-08-15T22:33:52.652Z,101212.35
2023-08-15T22:36:19.315Z,101213.77
2023-08-15T22:38:45.980Z,101211.62
2023-08-15T22:41:12.522Z,101213.24
2023-08-15T22:43:39.180Z,101214.41
2023-08-15T22:46:05.930Z,101213.60
2023-08-15T22:48:32.687Z,101213.14
2023-08-15T22:50:59.328Z,101214.27
2023-08-15T22:53:26.100Z,101214.08
2023-08-15T22:56:02.140Z,101214.70
2023-08-15T22:58:29.079Z,101214.19
2023-08-15T23:00:56.875Z,101213.23
2023-08-15T23:03:24.418Z,101215.74
2023-08-15T23:05:51.448Z,101212.01
2023-08-15T23:08:18.219Z,101212.02
2023-08-15T23:10:52.300Z,101214.17
2023-08-15T23:13:19.137Z,101213.54
2023-08-15T23:15:45.629Z,101217.00
2023-08-15T23:18:12.951Z,101216.69
2023-08-15T23:20:39.650Z,101216.81
2023-08-15T23:23:06.110Z,101218.73
2023-08-15T23:25:32.571Z,101214.28
2023-08-15T23:27:59.178Z,101215.40
2023-08-15T23:30:25.936Z,101216.65
2023-08-15T23:32:52.713Z,101216.48
2023-08-15T23:35:19.512Z,101216.69
2023-08-15T23:37:46.151Z,101218.30
2023-08-15T23:40:13.205Z,101222.61
2023-08-15T23:42:40.215Z,101218.87
2023-08-15T23:45:08.247Z,101221.70
2023-08-15T23:47:35.325Z,101223.34
2023-08-15T23:50:03.247Z,101223.11
2023-08-15T23:52:30.149Z,101222.36
2023-08-15T23:54:57.468Z,101219.27
2023-08-15T23:57:24.660Z,101219.94
2023-08-15T23:59:51.934Z,101218.74
